sensor_id;sensor_type;location;lat;lon;timestamp;pressure;altitude;pressure_sealevel;temperature;humidity
1480;BME280;732;51.698;4.886;2023-05-02T00:02:16;102192.09;;;8.17;75.45
1480;BME280;732;51.698;4.886;2023-05-02T00:04:44;102205.84;;;8.43;74.68
1480;BME280;732;51.698;4.886;2023-05-02T00:07:12;102198.41;;;8.16;75.21
1480;BME280;732;51.698;4.886;2023-05-02T00:09:41;102201.91;;;8.06;74.79
1480;BME280;732;51.698;4.886;2023-05-02T00:12:09;102211.06;;;7.92;74.69
1480;BME280;732;51.698;4.886;2023-05-02T00:14:37;102194.25;;;7.59;75.15
1480;BME280;732;51.698;4.886;2023-05-02T00:17:05;102215.50;;;7.61;75.92
1480;BME280;732;51.698;4.886;2023-05-02T00:19:38;102216.28;;;7.73;75.48
1480;BME280;732;51.698;4.886;2023-05-02T00:22:06;102214.72;;;7.49;75.83
1480;BME280;732;51.698;4.886;2023-05-02T00:24:35;102215.56;;;7.49;76.19
1480;BME280;732;51.698;4.886;2023-05-02T00:27:03;102175.25;;;7.20;76.15
1480;BME280;732;51.698;4.886;2023-05-02T00:29:32;102201.56;;;7.25;76.62
1480;BME280;732;51.698;4.886;2023-05-02T00:32:00;102208.66;;;7.47;76.17
1480;BME280;732;51.698;4.886;2023-05-02T00:34:29;102179.78;;;7.08;76.46
1480;BME280;732;51.698;4.886;2023-05-02T00:36:59;102209.13;;;7.20;76.88
1480;BME280;732;51.698;4.886;2023-05-02T00:39:27;102212.56;;;7.10;76.64
1480;BME280;732;51.698;4.886;2023-05-02T00:41:56;102215.47;;;7.07;77.03
1480;BME280;732;51.698;4.886;2023-05-02T00:44:24;102213.75;;;7.06;76.90
1480;BME280;732;51.698;4.886;2023-05-02T00:46:53;102217.13;;;7.20;76.74
1480;BME280;732;51.698;4.886;2023-05-02T00:49:22;102210.25;;;7.38;75.69
1480;BME280;732;51.698;4.886;2023-05-02T00:51:51;102190.69;;;7.16;75.82
1480;BME280;732;51.698;4.886;2023-05-02T00:54:21;102208.84;;;7.34;75.84
1480;BME280;732;51.698;4.886;2023-05-02T00:56:50;102201.16;;;7.62;74.99
1480;BME280;732;51.698;4.886;2023-05-02T00:59:18;102199.91;;;7.87;74.19
1480;BME280;732;51.698;4.886;2023-05-02T01:01:59;102182.59;;;7.81;74.02
1480;BME280;732;51.698;4.886;2023-05-02T01:04:43;102195.16;;;7.91;73.79
1480;BME280;732;51.698;4.886;2023-05-02T01:07:30;102206.38;;;7.63;74.48
1480;BME280;732;51.698;4.886;2023-05-02T01:10:15;102196.06;;;7.59;74.28
1480;BME280;732;51.698;4.886;2023-05-02T01:12:53;102191.00;;;7.77;73.94
1480;BME280;732;51.698;4.886;2023-05-02T01:15:24;102204.56;;;7.64;74.36
1480;BME280;732;51.698;4.886;2023-05-02T01:17:54;102210.53;;;7.56;74.65
1480;BME280;732;51.698;4.886;2023-05-02T01:20:26;102211.84;;;7.62;74.31
1480;BME280;732;51.698;4.886;2023-05-02T01:23:06;102204.88;;;7.71;74.27
1480;BME280;732;51.698;4.886;2023-05-02T01:25:55;102203.56;;;7.65;73.98
1480;BME280;732;51.698;4.886;2023-05-02T01:28:43;102209.03;;;7.63;74.23
1480;BME280;732;51.698;4.886;2023-05-02T01:31:14;102208.06;;;7.43;75.28
1480;BME280;732;51.698;4.886;2023-05-02T01:33:44;102218.34;;;7.48;75.54
1480;BME280;732;51.698;4.886;2023-05-02T01:36:15;102211.00;;;7.29;76.17
1480;BME280;732;51.698;4.886;2023-05-02T01:38:44;102204.09;;;7.38;76.06
1480;BME280;732;51.698;4.886;2023-05-02T01:41:13;102209.84;;;7.54;75.33
1480;BME280;732;51.698;4.886;2023-05-02T01:43:45;102222.84;;;7.47;75.54
1480;BME280;732;51.698;4.886;2023-05-02T01:46:14;102234.56;;;7.56;74.97
1480;BME280;732;51.698;4.886;2023-05-02T01:48:45;102240.78;;;7.57;75.50
1480;BME280;732;51.698;4.886;2023-05-02T01:51:17;102240.75;;;7.36;75.80
1480;BME280;732;51.698;4.886;2023-05-02T01:53:47;102239.81;;;7.25;76.36
1480;BME280;732;51.698;4.886;2023-05-02T01:56:18;102238.34;;;7.21;76.67
1480;BME280;732;51.698;4.886;2023-05-02T01:58:49;102242.72;;;7.22;76.69
1480;BME280;732;51.698;4.886;2023-05-02T02:01:20;102252.06;;;7.28;76.95
1480;BME280;732;51.698;4.886;2023-05-02T02:03:52;102244.25;;;7.36;76.31
1480;BME280;732;51.698;4.886;2023-05-02T02:06:22;102264.91;;;7.67;75.46
1480;BME280;732;51.698;4.886;2023-05-02T02:08:51;102259.00;;;7.52;75.84
1480;BME280;732;51.698;4.886;2023-05-02T02:11:25;102272.81;;;7.24;76.70
1480;BME280;732;51.698;4.886;2023-05-02T02:14:02;102271.75;;;7.04;77.88
1480;BME280;732;51.698;4.886;2023-05-02T02:16:33;102275.16;;;6.95;78.40
1480;BME280;732;51.698;4.886;2023-05-02T02:19:08;102258.53;;;7.03;78.01
1480;BME280;732;51.698;4.886;2023-05-02T02:21:37;102267.72;;;7.10;77.77
1480;BME280;732;51.698;4.886;2023-05-02T02:24:08;102268.84;;;6.96;77.98
1480;BME280;732;51.698;4.886;2023-05-02T02:26:37;102278.78;;;7.05;77.60
1480;BME280;732;51.698;4.886;2023-05-02T02:29:08;102285.13;;;7.04;77.00
1480;BME280;732;51.698;4.886;2023-05-02T02:31:36;102241.47;;;6.82;76.83
1480;BME280;732;51.698;4.886;2023-05-02T02:34:05;102280.09;;;7.22;75.81
1480;BME280;732;51.698;4.886;2023-05-02T02:36:42;102270.88;;;7.15;75.57
1480;BME280;732;51.698;4.886;2023-05-02T02:39:24;102265.41;;;7.28;75.40
1480;BME280;732;51.698;4.886;2023-05-02T02:42:10;102263.63;;;7.06;75.32
1480;BME280;732;51.698;4.886;2023-05-02T02:44:51;102290.53;;;7.14;75.97
1480;BME280;732;51.698;4.886;2023-05-02T02:47:28;102292.47;;;7.23;75.71
1480;BME280;732;51.698;4.886;2023-05-02T02:50:13;102264.59;;;7.05;75.58
1480;BME280;732;51.698;4.886;2023-05-02T02:52:52;102289.22;;;7.08;75.75
1480;BME280;732;51.698;4.886;2023-05-02T02:55:34;102294.91;;;7.04;75.92
1480;BME280;732;51.698;4.886;2023-05-02T02:58:18;102299.13;;;7.17;75.73
1480;BME280;732;51.698;4.886;2023-05-02T03:00:48;102305.94;;;7.22;75.81
1480;BME280;732;51.698;4.886;2023-05-02T03:03:19;102292.22;;;7.15;75.25
1480;BME280;732;51.698;4.886;2023-05-02T03:05:51;102312.13;;;7.11;75.93
1480;BME280;732;51.698;4.886;2023-05-02T03:08:19;102319.19;;;7.00;76.32
1480;BME280;732;51.698;4.886;2023-05-02T03:10:47;102313.47;;;7.05;75.92
1480;BME280;732;51.698;4.886;2023-05-02T03:13:16;102322.09;;;6.86;76.51
1480;BME280;732;51.698;4.886;2023-05-02T03:16:31;102322.34;;;6.94;76.02
1480;BME280;732;51.698;4.886;2023-05-02T03:19:02;102309.63;;;6.98;75.36
1480;BME280;732;51.698;4.886;2023-05-02T03:21:32;102329.84;;;7.12;74.57
1480;BME280;732;51.698;4.886;2023-05-02T03:24:07;102322.09;;;6.97;74.30
1480;BME280;732;51.698;4.886;2023-05-02T03:26:37;102298.94;;;6.75;74.59
1480;BME280;732;51.698;4.886;2023-05-02T03:29:08;102343.09;;;6.79;73.82
1480;BME280;732;51.698;4.886;2023-05-02T03:31:41;102345.75;;;6.68;73.95
1480;BME280;732;51.698;4.886;2023-05-02T03:34:11;102343.69;;;6.72;74.22
1480;BME280;732;51.698;4.886;2023-05-02T03:36:40;102342.09;;;6.69;73.49
1480;BME280;732;51.698;4.886;2023-05-02T03:39:09;102332.38;;;6.45;73.13
1480;BME280;732;51.698;4.886;2023-05-02T03:41:38;102338.91;;;6.41;73.09
1480;BME280;732;51.698;4.886;2023-05-02T03:44:11;102365.13;;;6.59;72.98
1480;BME280;732;51.698;4.886;2023-05-02T03:46:41;102366.19;;;6.45;71.60
1480;BME280;732;51.698;4.886;2023-05-02T03:49:11;102372.47;;;6.44;70.89
1480;BME280;732;51.698;4.886;2023-05-02T03:51:42;102346.84;;;6.30;71.32
1480;BME280;732;51.698;4.886;2023-05-02T03:54:11;102343.41;;;6.41;70.87
1480;BME280;732;51.698;4.886;2023-05-02T03:56:41;102372.16;;;6.48;70.76
1480;BME280;732;51.698;4.886;2023-05-02T03:59:20;102395.84;;;6.40;71.32
1480;BME280;732;51.698;4.886;2023-05-02T04:01:50;102392.47;;;6.38;70.17
1480;BME280;732;51.698;4.886;2023-05-02T04:04:23;102390.81;;;6.48;70.46
1480;BME280;732;51.698;4.886;2023-05-02T04:06:53;102410.59;;;6.33;69.87
1480;BME280;732;51.698;4.886;2023-05-02T04:09:22;102400.38;;;6.27;70.73
1480;BME280;732;51.698;4.886;2023-05-02T04:12:17;102411.44;;;6.33;70.40
1480;BME280;732;51.698;4.886;2023-05-02T04:14:48;102408.84;;;6.45;70.46
1480;BME280;732;51.698;4.886;2023-05-02T04:17:18;102388.75;;;6.28;70.04
1480;BME280;732;51.698;4.886;2023-05-02T04:19:49;102357.63;;;5.93;70.62
1480;BME280;732;51.698;4.886;2023-05-02T04:22:19;102419.91;;;6.27;70.66
1480;BME280;732;51.698;4.886;2023-05-02T04:24:52;102419.41;;;6.22;71.29
1480;BME280;732;51.698;4.886;2023-05-02T04:27:21;102411.53;;;6.45;70.23
1480;BME280;732;51.698;4.886;2023-05-02T04:29:50;102407.75;;;6.47;69.90
1480;BME280;732;51.698;4.886;2023-05-02T04:32:20;102426.22;;;6.50;70.08
1480;BME280;732;51.698;4.886;2023-05-02T04:34:49;102424.56;;;6.36;70.36
1480;BME280;732;51.698;4.886;2023-05-02T04:37:19;102439.56;;;6.62;70.26
1480;BME280;732;51.698;4.886;2023-05-02T04:39:48;102438.22;;;6.56;70.35
1480;BME280;732;51.698;4.886;2023-05-02T04:42:21;102411.66;;;6.43;70.09
1480;BME280;732;51.698;4.886;2023-05-02T04:44:59;102442.25;;;6.73;70.01
1480;BME280;732;51.698;4.886;2023-05-02T04:47:29;102420.06;;;6.73;69.04
1480;BME280;732;51.698;4.886;2023-05-02T04:49:58;102450.16;;;6.75;69.38
1480;BME280;732;51.698;4.886;2023-05-02T04:52:28;102455.44;;;6.63;69.50
1480;BME280;732;51.698;4.886;2023-05-02T04:54:56;102437.25;;;6.57;69.60
1480;BME280;732;51.698;4.886;2023-05-02T04:57:27;102458.16;;;6.75;69.81
1480;BME280;732;51.698;4.886;2023-05-02T04:59:58;102460.50;;;6.91;68.96
1480;BME280;732;51.698;4.886;2023-05-02T05:02:29;102463.81;;;6.70;69.40
1480;BME280;732;51.698;4.886;2023-05-02T05:04:59;102472.66;;;6.59;69.38
1480;BME280;732;51.698;4.886;2023-05-02T05:07:28;102474.53;;;6.46;69.35
1480;BME280;732;51.698;4.886;2023-05-02T05:09:57;102453.25;;;6.09;68.43
1480;BME280;732;51.698;4.886;2023-05-02T05:12:29;102463.78;;;6.10;68.58
1480;BME280;732;51.698;4.886;2023-05-02T05:14:57;102468.50;;;5.82;68.52
1480;BME280;732;51.698;4.886;2023-05-02T05:17:28;102483.25;;;5.99;68.57
1480;BME280;732;51.698;4.886;2023-05-02T05:19:58;102461.00;;;5.87;68.03
1480;BME280;732;51.698;4.886;2023-05-02T05:22:26;102487.44;;;6.15;68.25
1480;BME280;732;51.698;4.886;2023-05-02T05:24:55;102492.53;;;6.18;67.69
1480;BME280;732;51.698;4.886;2023-05-02T05:27:28;102492.59;;;6.05;68.08
1480;BME280;732;51.698;4.886;2023-05-02T05:29:56;102497.09;;;6.29;66.92
1480;BME280;732;51.698;4.886;2023-05-02T05:32:25;102501.41;;;6.43;66.48
1480;BME280;732;51.698;4.886;2023-05-02T05:34:56;102502.94;;;6.34;65.48
1480;BME280;732;51.698;4.886;2023-05-02T05:37:26;102488.88;;;6.32;66.30
1480;BME280;732;51.698;4.886;2023-05-02T05:39:56;102511.38;;;6.41;65.90
1480;BME280;732;51.698;4.886;2023-05-02T05:42:25;102512.72;;;6.46;65.36
1480;BME280;732;51.698;4.886;2023-05-02T05:44:58;102509.88;;;6.61;64.91
1480;BME280;732;51.698;4.886;2023-05-02T05:47:26;102532.75;;;6.88;64.82
1480;BME280;732;51.698;4.886;2023-05-02T05:49:57;102532.84;;;7.22;63.24
1480;BME280;732;51.698;4.886;2023-05-02T05:52:29;102546.06;;;7.23;62.43
1480;BME280;732;51.698;4.886;2023-05-02T05:54:59;102523.91;;;6.87;62.80
1480;BME280;732;51.698;4.886;2023-05-02T05:57:28;102531.72;;;7.02;62.92
1480;BME280;732;51.698;4.886;2023-05-02T05:59:57;102552.25;;;7.24;62.42
1480;BME280;732;51.698;4.886;2023-05-02T06:02:25;102538.91;;;7.35;61.74
1480;BME280;732;51.698;4.886;2023-05-02T06:04:55;102551.94;;;7.51;61.83
1480;BME280;732;51.698;4.886;2023-05-02T06:07:26;102567.09;;;7.39;61.65
1480;BME280;732;51.698;4.886;2023-05-02T06:09:54;102568.06;;;7.27;61.63
1480;BME280;732;51.698;4.886;2023-05-02T06:12:22;102555.69;;;7.60;61.72
1480;BME280;732;51.698;4.886;2023-05-02T06:14:50;102569.19;;;7.70;60.73
1480;BME280;732;51.698;4.886;2023-05-02T06:17:20;102579.28;;;7.89;60.62
1480;BME280;732;51.698;4.886;2023-05-02T06:19:49;102571.97;;;7.79;60.65
1480;BME280;732;51.698;4.886;2023-05-02T06:22:17;102564.59;;;8.06;61.26
1480;BME280;732;51.698;4.886;2023-05-02T06:24:46;102581.22;;;8.21;59.79
1480;BME280;732;51.698;4.886;2023-05-02T06:27:14;102587.81;;;8.05;59.70
1480;BME280;732;51.698;4.886;2023-05-02T06:29:43;102584.66;;;8.00;59.79
1480;BME280;732;51.698;4.886;2023-05-02T06:32:11;102592.13;;;7.95;60.31
1480;BME280;732;51.698;4.886;2023-05-02T06:34:39;102596.78;;;8.04;59.92
1480;BME280;732;51.698;4.886;2023-05-02T06:37:07;102597.59;;;7.71;59.65
1480;BME280;732;51.698;4.886;2023-05-02T06:39:36;102581.94;;;7.66;59.60
1480;BME280;732;51.698;4.886;2023-05-02T06:42:05;102600.19;;;8.06;59.95
1480;BME280;732;51.698;4.886;2023-05-02T06:44:34;102593.28;;;8.04;58.79
1480;BME280;732;51.698;4.886;2023-05-02T06:47:03;102592.66;;;8.00;58.47
1480;BME280;732;51.698;4.886;2023-05-02T06:49:32;102585.47;;;7.78;58.65
1480;BME280;732;51.698;4.886;2023-05-02T06:52:00;102618.28;;;8.14;58.35
1480;BME280;732;51.698;4.886;2023-05-02T06:54:28;102622.66;;;8.26;57.86
1480;BME280;732;51.698;4.886;2023-05-02T06:56:56;102610.25;;;8.37;55.56
1480;BME280;732;51.698;4.886;2023-05-02T06:59:27;102578.53;;;8.21;54.53
1480;BME280;732;51.698;4.886;2023-05-02T07:01:55;102625.53;;;8.46;55.91
1480;BME280;732;51.698;4.886;2023-05-02T07:04:23;102629.97;;;8.68;55.58
1480;BME280;732;51.698;4.886;2023-05-02T07:06:53;102624.28;;;8.61;54.58
1480;BME280;732;51.698;4.886;2023-05-02T07:09:21;102620.09;;;8.80;53.39
1480;BME280;732;51.698;4.886;2023-05-02T07:11:50;102635.06;;;8.83;52.95
1480;BME280;732;51.698;4.886;2023-05-02T07:14:18;102624.56;;;8.47;53.72
1480;BME280;732;51.698;4.886;2023-05-02T07:16:50;102605.03;;;8.35;51.96
1480;BME280;732;51.698;4.886;2023-05-02T07:19:20;102640.56;;;8.58;50.76
1480;BME280;732;51.698;4.886;2023-05-02T07:21:48;102620.94;;;8.25;49.99
1480;BME280;732;51.698;4.886;2023-05-02T07:24:16;102626.19;;;8.16;50.75
1480;BME280;732;51.698;4.886;2023-05-02T07:26:44;102651.00;;;8.18;49.69
1480;BME280;732;51.698;4.886;2023-05-02T07:29:13;102648.91;;;8.21;51.48
1480;BME280;732;51.698;4.886;2023-05-02T07:31:41;102648.19;;;8.19;50.97
1480;BME280;732;51.698;4.886;2023-05-02T07:34:10;102642.47;;;8.01;51.57
1480;BME280;732;51.698;4.886;2023-05-02T07:36:39;102655.34;;;8.30;49.52
1480;BME280;732;51.698;4.886;2023-05-02T07:39:07;102651.72;;;8.86;48.59
1480;BME280;732;51.698;4.886;2023-05-02T07:41:36;102662.56;;;9.17;46.63
1480;BME280;732;51.698;4.886;2023-05-02T07:44:04;102659.66;;;9.09;45.68
1480;BME280;732;51.698;4.886;2023-05-02T07:46:32;102664.41;;;9.05;47.11
1480;BME280;732;51.698;4.886;2023-05-02T07:49:01;102665.16;;;9.40;47.08
1480;BME280;732;51.698;4.886;2023-05-02T07:51:33;102669.91;;;9.57;46.75
1480;BME280;732;51.698;4.886;2023-05-02T07:54:01;102672.09;;;9.31;47.38
1480;BME280;732;51.698;4.886;2023-05-02T07:56:29;102642.19;;;8.93;47.87
1480;BME280;732;51.698;4.886;2023-05-02T07:58:58;102666.44;;;9.46;46.72
1480;BME280;732;51.698;4.886;2023-05-02T08:01:26;102673.44;;;9.58;46.10
1480;BME280;732;51.698;4.886;2023-05-02T08:03:55;102657.00;;;9.30;45.01
1480;BME280;732;51.698;4.886;2023-05-02T08:06:24;102674.09;;;9.50;44.70
1480;BME280;732;51.698;4.886;2023-05-02T08:08:54;102678.53;;;9.40;43.98
1480;BME280;732;51.698;4.886;2023-05-02T08:11:22;102688.88;;;9.45;44.94
1480;BME280;732;51.698;4.886;2023-05-02T08:13:51;102668.28;;;9.13;45.70
1480;BME280;732;51.698;4.886;2023-05-02T08:16:20;102700.81;;;9.40;46.64
1480;BME280;732;51.698;4.886;2023-05-02T08:18:48;102688.00;;;9.86;45.98
1480;BME280;732;51.698;4.886;2023-05-02T08:21:17;102695.75;;;10.11;45.02
1480;BME280;732;51.698;4.886;2023-05-02T08:23:45;102698.69;;;10.07;43.46
1480;BME280;732;51.698;4.886;2023-05-02T08:26:14;102700.03;;;9.92;43.30
1480;BME280;732;51.698;4.886;2023-05-02T08:28:45;102699.41;;;9.57;44.02
1480;BME280;732;51.698;4.886;2023-05-02T08:31:13;102673.31;;;9.38;43.15
1480;BME280;732;51.698;4.886;2023-05-02T08:33:44;102710.38;;;9.75;44.52
1480;BME280;732;51.698;4.886;2023-05-02T08:36:14;102698.44;;;10.11;41.79
1480;BME280;732;51.698;4.886;2023-05-02T08:38:44;102716.94;;;10.85;43.50
1480;BME280;732;51.698;4.886;2023-05-02T08:41:16;102702.56;;;11.26;42.33
1480;BME280;732;51.698;4.886;2023-05-02T08:43:45;102702.88;;;10.62;44.63
1480;BME280;732;51.698;4.886;2023-05-02T08:46:16;102736.78;;;10.01;46.49
1480;BME280;732;51.698;4.886;2023-05-02T08:48:45;102736.00;;;9.89;47.07
1480;BME280;732;51.698;4.886;2023-05-02T08:51:16;102741.81;;;10.16;47.39
1480;BME280;732;51.698;4.886;2023-05-02T08:53:45;102751.81;;;10.14;47.80
1480;BME280;732;51.698;4.886;2023-05-02T08:56:15;102743.00;;;10.33;47.59
1480;BME280;732;51.698;4.886;2023-05-02T08:58:43;102738.47;;;10.64;44.69
1480;BME280;732;51.698;4.886;2023-05-02T09:01:15;102724.00;;;10.46;45.55
1480;BME280;732;51.698;4.886;2023-05-02T09:03:45;102716.06;;;10.44;45.74
1480;BME280;732;51.698;4.886;2023-05-02T09:06:16;102740.84;;;10.98;45.71
1480;BME280;732;51.698;4.886;2023-05-02T09:08:46;102746.53;;;11.34;44.14
1480;BME280;732;51.698;4.886;2023-05-02T09:11:18;102750.91;;;11.55;44.10
1480;BME280;732;51.698;4.886;2023-05-02T09:13:48;102739.75;;;11.40;43.95
1480;BME280;732;51.698;4.886;2023-05-02T09:16:19;102763.78;;;11.22;43.43
1480;BME280;732;51.698;4.886;2023-05-02T09:18:49;102762.19;;;11.00;44.22
1480;BME280;732;51.698;4.886;2023-05-02T09:21:20;102757.00;;;10.36;44.08
1480;BME280;732;51.698;4.886;2023-05-02T09:23:50;102770.06;;;10.51;45.58
1480;BME280;732;51.698;4.886;2023-05-02T09:26:22;102771.53;;;11.06;43.63
1480;BME280;732;51.698;4.886;2023-05-02T09:28:51;102747.81;;;11.50;43.27
1480;BME280;732;51.698;4.886;2023-05-02T09:31:23;102761.75;;;12.12;43.34
1480;BME280;732;51.698;4.886;2023-05-02T09:34:15;102754.28;;;13.00;43.24
1480;BME280;732;51.698;4.886;2023-05-02T09:36:45;102731.59;;;13.02;40.92
1480;BME280;732;51.698;4.886;2023-05-02T09:39:16;102736.28;;;13.54;39.54
1480;BME280;732;51.698;4.886;2023-05-02T09:41:47;102758.66;;;13.91;39.10
1480;BME280;732;51.698;4.886;2023-05-02T09:44:17;102773.31;;;13.88;36.76
1480;BME280;732;51.698;4.886;2023-05-02T09:46:51;102772.00;;;13.74;37.09
1480;BME280;732;51.698;4.886;2023-05-02T09:49:39;102756.94;;;13.63;38.66
1480;BME280;732;51.698;4.886;2023-05-02T09:52:11;102778.06;;;13.50;38.57
1480;BME280;732;51.698;4.886;2023-05-02T09:54:40;102781.69;;;13.41;39.32
1480;BME280;732;51.698;4.886;2023-05-02T09:57:10;102789.06;;;13.39;38.93
1480;BME280;732;51.698;4.886;2023-05-02T09:59:39;102792.00;;;13.45;37.95
1480;BME280;732;51.698;4.886;2023-05-02T10:02:08;102797.94;;;12.75;39.87
1480;BME280;732;51.698;4.886;2023-05-02T10:04:38;102777.53;;;12.45;40.37
1480;BME280;732;51.698;4.886;2023-05-02T10:07:08;102781.91;;;12.46;40.18
1480;BME280;732;51.698;4.886;2023-05-02T10:09:43;102785.16;;;11.82;41.61
1480;BME280;732;51.698;4.886;2023-05-02T10:12:14;102791.06;;;12.25;38.24
1480;BME280;732;51.698;4.886;2023-05-02T10:14:48;102782.94;;;12.73;38.70
1480;BME280;732;51.698;4.886;2023-05-02T10:17:25;102785.69;;;13.55;39.38
1480;BME280;732;51.698;4.886;2023-05-02T10:19:59;102792.00;;;14.69;39.01
1480;BME280;732;51.698;4.886;2023-05-02T10:22:28;102789.78;;;14.99;35.85
1480;BME280;732;51.698;4.886;2023-05-02T10:24:58;102793.63;;;14.88;33.79
1480;BME280;732;51.698;4.886;2023-05-02T10:27:30;102769.59;;;14.07;34.79
1480;BME280;732;51.698;4.886;2023-05-02T10:30:00;102794.84;;;13.80;37.09
1480;BME280;732;51.698;4.886;2023-05-02T10:32:32;102789.22;;;13.55;36.18
1480;BME280;732;51.698;4.886;2023-05-02T10:35:04;102773.03;;;13.19;37.14
1480;BME280;732;51.698;4.886;2023-05-02T10:37:35;102787.88;;;12.77;36.75
1480;BME280;732;51.698;4.886;2023-05-02T10:40:09;102794.94;;;12.50;37.08
1480;BME280;732;51.698;4.886;2023-05-02T10:42:42;102788.81;;;12.11;38.60
1480;BME280;732;51.698;4.886;2023-05-02T10:45:30;102758.94;;;12.14;39.11
1480;BME280;732;51.698;4.886;2023-05-02T10:48:17;102793.34;;;12.95;39.29
1480;BME280;732;51.698;4.886;2023-05-02T10:50:48;102803.09;;;13.42;37.30
1480;BME280;732;51.698;4.886;2023-05-02T10:53:29;102787.31;;;13.48;37.14
1480;BME280;732;51.698;4.886;2023-05-02T10:56:18;102775.69;;;13.47;37.40
1480;BME280;732;51.698;4.886;2023-05-02T10:58:50;102812.66;;;13.55;37.95
1480;BME280;732;51.698;4.886;2023-05-02T11:01:33;102807.41;;;13.35;39.05
1480;BME280;732;51.698;4.886;2023-05-02T11:04:05;102811.88;;;13.26;37.52
1480;BME280;732;51.698;4.886;2023-05-02T11:06:34;102821.00;;;12.88;38.60
1480;BME280;732;51.698;4.886;2023-05-02T11:09:31;102803.41;;;12.93;39.28
1480;BME280;732;51.698;4.886;2023-05-02T11:12:01;102796.84;;;13.42;37.95
1480;BME280;732;51.698;4.886;2023-05-02T11:14:52;102821.56;;;14.09;38.85
1480;BME280;732;51.698;4.886;2023-05-02T11:17:21;102813.03;;;14.22;36.80
1480;BME280;732;51.698;4.886;2023-05-02T11:20:22;102819.78;;;14.18;36.93
1480;BME280;732;51.698;4.886;2023-05-02T11:22:54;102787.03;;;14.48;37.83
1480;BME280;732;51.698;4.886;2023-05-02T11:25:30;102780.66;;;14.22;35.11
1480;BME280;732;51.698;4.886;2023-05-02T11:28:00;102800.00;;;13.55;34.59
1480;BME280;732;51.698;4.886;2023-05-02T11:30:44;102811.13;;;13.52;37.44
1480;BME280;732;51.698;4.886;2023-05-02T11:33:16;102797.50;;;12.80;36.35
1480;BME280;732;51.698;4.886;2023-05-02T11:35:49;102818.88;;;12.91;38.77
1480;BME280;732;51.698;4.886;2023-05-02T11:38:21;102802.16;;;12.50;39.19
1480;BME280;732;51.698;4.886;2023-05-02T11:40:57;102821.59;;;12.91;39.35
1480;BME280;732;51.698;4.886;2023-05-02T11:43:27;102795.75;;;12.89;38.16
1480;BME280;732;51.698;4.886;2023-05-02T11:46:05;102815.03;;;12.94;37.91
1480;BME280;732;51.698;4.886;2023-05-02T11:48:40;102818.59;;;12.85;36.25
1480;BME280;732;51.698;4.886;2023-05-02T11:51:21;102791.19;;;12.99;36.82
1480;BME280;732;51.698;4.886;2023-05-02T11:53:53;102821.09;;;13.24;36.49
1480;BME280;732;51.698;4.886;2023-05-02T11:56:29;102813.88;;;13.42;36.45
1480;BME280;732;51.698;4.886;2023-05-02T11:59:01;102776.31;;;13.85;35.68
1480;BME280;732;51.698;4.886;2023-05-02T12:01:33;102820.47;;;13.84;35.00
1480;BME280;732;51.698;4.886;2023-05-02T12:04:06;102834.75;;;13.40;36.81
1480;BME280;732;51.698;4.886;2023-05-02T12:06:53;102840.47;;;13.09;36.45
1480;BME280;732;51.698;4.886;2023-05-02T12:09:21;102849.66;;;13.17;36.55
1480;BME280;732;51.698;4.886;2023-05-02T12:11:56;102846.50;;;12.93;36.87
1480;BME280;732;51.698;4.886;2023-05-02T12:14:28;102824.50;;;12.98;37.34
1480;BME280;732;51.698;4.886;2023-05-02T12:17:04;102828.59;;;13.02;37.25
1480;BME280;732;51.698;4.886;2023-05-02T12:19:33;102815.34;;;13.37;35.35
1480;BME280;732;51.698;4.886;2023-05-02T12:22:03;102852.13;;;13.10;35.19
1480;BME280;732;51.698;4.886;2023-05-02T12:24:36;102823.19;;;12.74;36.61
1480;BME280;732;51.698;4.886;2023-05-02T12:27:16;102849.91;;;12.86;36.79
1480;BME280;732;51.698;4.886;2023-05-02T12:29:50;102854.50;;;12.75;36.55
1480;BME280;732;51.698;4.886;2023-05-02T12:32:37;102851.31;;;13.00;34.16
1480;BME280;732;51.698;4.886;2023-05-02T12:35:27;102823.97;;;13.40;36.16
1480;BME280;732;51.698;4.886;2023-05-02T12:38:12;102853.97;;;14.09;34.21
1480;BME280;732;51.698;4.886;2023-05-02T12:40:52;102864.34;;;13.86;34.71
1480;BME280;732;51.698;4.886;2023-05-02T12:43:23;102862.03;;;13.37;34.74
1480;BME280;732;51.698;4.886;2023-05-02T12:46:08;102850.97;;;13.12;34.88
1480;BME280;732;51.698;4.886;2023-05-02T12:48:41;102839.75;;;12.42;36.33
1480;BME280;732;51.698;4.886;2023-05-02T12:51:22;102849.97;;;12.28;35.24
1480;BME280;732;51.698;4.886;2023-05-02T12:53:54;102865.13;;;12.77;38.48
1480;BME280;732;51.698;4.886;2023-05-02T12:56:22;102864.50;;;12.55;35.07
1480;BME280;732;51.698;4.886;2023-05-02T12:58:53;102859.50;;;13.08;36.96
1480;BME280;732;51.698;4.886;2023-05-02T13:01:22;102861.16;;;13.37;35.66
1480;BME280;732;51.698;4.886;2023-05-02T13:03:51;102861.56;;;13.42;34.38
1480;BME280;732;51.698;4.886;2023-05-02T13:06:19;102869.69;;;13.60;35.22
1480;BME280;732;51.698;4.886;2023-05-02T13:08:48;102872.75;;;13.19;34.91
1480;BME280;732;51.698;4.886;2023-05-02T13:11:16;102867.94;;;12.85;36.49
1480;BME280;732;51.698;4.886;2023-05-02T13:13:47;102878.81;;;12.46;35.61
1480;BME280;732;51.698;4.886;2023-05-02T13:16:15;102874.72;;;12.89;36.10
1480;BME280;732;51.698;4.886;2023-05-02T13:18:44;102867.53;;;13.18;34.75
1480;BME280;732;51.698;4.886;2023-05-02T13:21:17;102835.88;;;12.92;35.09
1480;BME280;732;51.698;4.886;2023-05-02T13:23:46;102859.94;;;13.31;36.23
1480;BME280;732;51.698;4.886;2023-05-02T13:26:16;102856.06;;;13.98;35.74
1480;BME280;732;51.698;4.886;2023-05-02T13:28:44;102854.88;;;14.45;34.61
1480;BME280;732;51.698;4.886;2023-05-02T13:31:12;102868.03;;;14.39;33.42
1480;BME280;732;51.698;4.886;2023-05-02T13:33:41;102868.69;;;14.41;35.15
1480;BME280;732;51.698;4.886;2023-05-02T13:36:16;102878.41;;;14.08;34.54
1480;BME280;732;51.698;4.886;2023-05-02T13:38:45;102861.97;;;14.46;37.37
1480;BME280;732;51.698;4.886;2023-05-02T13:41:13;102883.47;;;14.90;34.93
1480;BME280;732;51.698;4.886;2023-05-02T13:43:41;102881.53;;;15.00;33.80
1480;BME280;732;51.698;4.886;2023-05-02T13:46:11;102891.81;;;14.70;34.13
1480;BME280;732;51.698;4.886;2023-05-02T13:48:41;102851.44;;;14.61;33.40
1480;BME280;732;51.698;4.886;2023-05-02T13:51:12;102889.53;;;14.84;31.68
1480;BME280;732;51.698;4.886;2023-05-02T13:53:42;102883.88;;;14.16;32.70
1480;BME280;732;51.698;4.886;2023-05-02T13:56:10;102885.31;;;14.29;33.89